sensor_id;sensor_type;location;lat;lon;timestamp;temperature;humidity
20759;DHT22;10539;53.686;9.158;2023-04-24T00:00:11;13.80;99.90
20759;DHT22;10539;53.686;9.158;2023-04-24T00:02:44;13.70;99.90
20759;DHT22;10539;53.686;9.158;2023-04-24T00:05:13;13.70;99.90
20759;DHT22;10539;53.686;9.158;2023-04-24T00:07:39;13.70;99.90
20759;DHT22;10539;53.686;9.158;2023-04-24T00:10:06;13.70;99.90
20759;DHT22;10539;53.686;9.158;2023-04-24T00:12:32;13.60;99.90
20759;DHT22;10539;53.686;9.158;2023-04-24T00:14:58;13.60;99.90
20759;DHT22;10539;53.686;9.158;2023-04-24T00:17:23;13.70;99.90
20759;DHT22;10539;53.686;9.158;2023-04-24T00:19:49;13.70;99.90
20759;DHT22;10539;53.686;9.158;2023-04-24T00:22:27;13.60;99.90
20759;DHT22;10539;53.686;9.158;2023-04-24T00:24:54;13.60;99.90
20759;DHT22;10539;53.686;9.158;2023-04-24T00:27:20;13.60;99.90
20759;DHT22;10539;53.686;9.158;2023-04-24T00:29:46;13.50;99.90
20759;DHT22;10539;53.686;9.158;2023-04-24T00:32:11;13.50;99.90
20759;DHT22;10539;53.686;9.158;2023-04-24T00:34:37;13.50;99.90
20759;DHT22;10539;53.686;9.158;2023-04-24T00:37:03;13.50;99.90
20759;DHT22;10539;53.686;9.158;2023-04-24T00:39:29;13.50;99.90
20759;DHT22;10539;53.686;9.158;2023-04-24T00:41:55;13.50;99.90
20759;DHT22;10539;53.686;9.158;2023-04-24T00:44:22;13.50;99.90
20759;DHT22;10539;53.686;9.158;2023-04-24T00:46:49;13.50;99.90
20759;DHT22;10539;53.686;9.158;2023-04-24T00:49:18;13.60;99.90
20759;DHT22;10539;53.686;9.158;2023-04-24T00:51:44;13.60;99.90
20759;DHT22;10539;53.686;9.158;2023-04-24T00:54:12;13.60;99.90
20759;DHT22;10539;53.686;9.158;2023-04-24T00:56:38;13.60;99.90
20759;DHT22;10539;53.686;9.158;2023-04-24T00:59:04;13.60;99.90
20759;DHT22;10539;53.686;9.158;2023-04-24T01:01:30;13.60;99.90
20759;DHT22;10539;53.686;9.158;2023-04-24T01:03:57;13.60;99.90
20759;DHT22;10539;53.686;9.158;2023-04-24T01:06:23;13.60;99.90
20759;DHT22;10539;53.686;9.158;2023-04-24T01:08:51;13.60;99.90
20759;DHT22;10539;53.686;9.158;2023-04-24T01:11:17;13.50;99.90
20759;DHT22;10539;53.686;9.158;2023-04-24T01:13:43;13.60;99.90
20759;DHT22;10539;53.686;9.158;2023-04-24T01:16:09;13.60;99.90
20759;DHT22;10539;53.686;9.158;2023-04-24T01:18:35;13.60;99.90
20759;DHT22;10539;53.686;9.158;2023-04-24T01:21:03;13.60;99.90
20759;DHT22;10539;53.686;9.158;2023-04-24T01:23:30;13.60;99.90
20759;DHT22;10539;53.686;9.158;2023-04-24T01:25:55;13.60;99.90
20759;DHT22;10539;53.686;9.158;2023-04-24T01:28:21;13.60;99.90
20759;DHT22;10539;53.686;9.158;2023-04-24T01:30:47;13.60;99.90
20759;DHT22;10539;53.686;9.158;2023-04-24T01:33:13;13.60;99.90
20759;DHT22;10539;53.686;9.158;2023-04-24T01:35:40;13.60;99.90
20759;DHT22;10539;53.686;9.158;2023-04-24T01:38:05;13.60;99.90
20759;DHT22;10539;53.686;9.158;2023-04-24T01:40:32;13.50;99.90
20759;DHT22;10539;53.686;9.158;2023-04-24T01:42:58;13.50;99.90
20759;DHT22;10539;53.686;9.158;2023-04-24T01:45:25;13.50;99.90
20759;DHT22;10539;53.686;9.158;2023-04-24T01:47:51;13.50;99.90
20759;DHT22;10539;53.686;9.158;2023-04-24T01:50:17;13.50;99.90
20759;DHT22;10539;53.686;9.158;2023-04-24T01:52:43;13.50;99.90
20759;DHT22;10539;53.686;9.158;2023-04-24T01:55:10;13.50;99.90
20759;DHT22;10539;53.686;9.158;2023-04-24T01:57:36;13.50;99.90
20759;DHT22;10539;53.686;9.158;2023-04-24T02:00:03;13.40;99.90
20759;DHT22;10539;53.686;9.158;2023-04-24T02:02:30;13.40;99.90
20759;DHT22;10539;53.686;9.158;2023-04-24T02:04:56;13.30;99.90
20759;DHT22;10539;53.686;9.158;2023-04-24T02:07:22;13.20;99.90
20759;DHT22;10539;53.686;9.158;2023-04-24T02:09:48;13.20;99.90
20759;DHT22;10539;53.686;9.158;2023-04-24T02:12:15;13.20;99.90
20759;DHT22;10539;53.686;9.158;2023-04-24T02:14:43;13.20;99.90
20759;DHT22;10539;53.686;9.158;2023-04-24T02:17:09;13.10;99.90
20759;DHT22;10539;53.686;9.158;2023-04-24T02:19:34;13.00;99.90
20759;DHT22;10539;53.686;9.158;2023-04-24T02:22:00;13.00;99.90
20759;DHT22;10539;53.686;9.158;2023-04-24T02:24:26;12.90;99.90
20759;DHT22;10539;53.686;9.158;2023-04-24T02:26:52;12.90;99.90
20759;DHT22;10539;53.686;9.158;2023-04-24T02:29:17;12.90;99.90
20759;DHT22;10539;53.686;9.158;2023-04-24T02:31:43;12.80;99.90
20759;DHT22;10539;53.686;9.158;2023-04-24T02:34:09;12.80;99.90
20759;DHT22;10539;53.686;9.158;2023-04-24T02:36:35;12.80;99.90
20759;DHT22;10539;53.686;9.158;2023-04-24T02:39:00;12.80;99.90
20759;DHT22;10539;53.686;9.158;2023-04-24T02:41:26;12.90;99.90
20759;DHT22;10539;53.686;9.158;2023-04-24T02:44:00;12.90;99.90
20759;DHT22;10539;53.686;9.158;2023-04-24T02:46:26;12.90;99.90
20759;DHT22;10539;53.686;9.158;2023-04-24T02:48:52;12.90;99.90
20759;DHT22;10539;53.686;9.158;2023-04-24T02:51:17;12.90;99.90
20759;DHT22;10539;53.686;9.158;2023-04-24T02:53:43;12.90;99.90
20759;DHT22;10539;53.686;9.158;2023-04-24T02:56:09;13.00;99.90
20759;DHT22;10539;53.686;9.158;2023-04-24T02:58:38;12.90;99.90
20759;DHT22;10539;53.686;9.158;2023-04-24T03:01:04;13.00;99.90
20759;DHT22;10539;53.686;9.158;2023-04-24T03:03:30;13.00;99.90
20759;DHT22;10539;53.686;9.158;2023-04-24T03:05:56;13.00;99.90
20759;DHT22;10539;53.686;9.158;2023-04-24T03:08:22;13.00;99.90
20759;DHT22;10539;53.686;9.158;2023-04-24T03:10:48;13.00;99.90
20759;DHT22;10539;53.686;9.158;2023-04-24T03:13:17;12.90;99.90
20759;DHT22;10539;53.686;9.158;2023-04-24T03:15:42;12.90;99.90
20759;DHT22;10539;53.686;9.158;2023-04-24T03:18:08;12.80;99.90
20759;DHT22;10539;53.686;9.158;2023-04-24T03:20:34;12.80;99.90
20759;DHT22;10539;53.686;9.158;2023-04-24T03:22:59;12.80;99.90
20759;DHT22;10539;53.686;9.158;2023-04-24T03:25:25;12.80;99.90
20759;DHT22;10539;53.686;9.158;2023-04-24T03:27:51;12.90;99.90
20759;DHT22;10539;53.686;9.158;2023-04-24T03:30:17;12.90;99.90
20759;DHT22;10539;53.686;9.158;2023-04-24T03:32:43;12.90;99.90
20759;DHT22;10539;53.686;9.158;2023-04-24T03:35:11;12.90;99.90
20759;DHT22;10539;53.686;9.158;2023-04-24T03:37:36;12.90;99.90
20759;DHT22;10539;53.686;9.158;2023-04-24T03:40:02;12.90;99.90
20759;DHT22;10539;53.686;9.158;2023-04-24T03:42:28;12.90;99.90
20759;DHT22;10539;53.686;9.158;2023-04-24T03:44:54;12.90;99.90
20759;DHT22;10539;53.686;9.158;2023-04-24T03:47:20;12.90;99.90
20759;DHT22;10539;53.686;9.158;2023-04-24T03:49:45;12.80;99.90
20759;DHT22;10539;53.686;9.158;2023-04-24T03:52:11;12.90;99.90
20759;DHT22;10539;53.686;9.158;2023-04-24T03:54:37;12.80;99.90
20759;DHT22;10539;53.686;9.158;2023-04-24T03:57:02;12.80;99.90
20759;DHT22;10539;53.686;9.158;2023-04-24T03:59:30;12.80;99.90
20759;DHT22;10539;53.686;9.158;2023-04-24T04:01:56;12.80;99.90
20759;DHT22;10539;53.686;9.158;2023-04-24T04:04:21;12.80;99.90
20759;DHT22;10539;53.686;9.158;2023-04-24T04:06:47;12.70;99.90
20759;DHT22;10539;53.686;9.158;2023-04-24T04:09:13;12.80;99.90
20759;DHT22;10539;53.686;9.158;2023-04-24T04:11:39;12.70;99.90
20759;DHT22;10539;53.686;9.158;2023-04-24T04:14:05;12.70;99.90
20759;DHT22;10539;53.686;9.158;2023-04-24T04:16:31;12.80;99.90
20759;DHT22;10539;53.686;9.158;2023-04-24T04:18:56;12.80;99.90
20759;DHT22;10539;53.686;9.158;2023-04-24T04:21:22;12.80;99.90
20759;DHT22;10539;53.686;9.158;2023-04-24T04:23:48;12.80;99.90
20759;DHT22;10539;53.686;9.158;2023-04-24T04:26:14;12.80;99.90
20759;DHT22;10539;53.686;9.158;2023-04-24T04:28:40;12.80;99.90
20759;DHT22;10539;53.686;9.158;2023-04-24T04:31:06;12.80;99.90
20759;DHT22;10539;53.686;9.158;2023-04-24T04:33:33;12.70;99.90
20759;DHT22;10539;53.686;9.158;2023-04-24T04:35:59;12.70;99.90
20759;DHT22;10539;53.686;9.158;2023-04-24T04:38:25;12.70;99.90
20759;DHT22;10539;53.686;9.158;2023-04-24T04:40:55;12.70;99.90
20759;DHT22;10539;53.686;9.158;2023-04-24T04:43:24;12.70;99.90
20759;DHT22;10539;53.686;9.158;2023-04-24T04:45:51;12.70;99.90
20759;DHT22;10539;53.686;9.158;2023-04-24T04:48:17;12.60;99.90
20759;DHT22;10539;53.686;9.158;2023-04-24T04:50:44;12.60;99.90
20759;DHT22;10539;53.686;9.158;2023-04-24T04:53:10;12.60;99.90
20759;DHT22;10539;53.686;9.158;2023-04-24T04:55:36;12.60;99.90
20759;DHT22;10539;53.686;9.158;2023-04-24T04:58:02;12.60;99.90
20759;DHT22;10539;53.686;9.158;2023-04-24T05:00:28;12.70;99.90
20759;DHT22;10539;53.686;9.158;2023-04-24T05:02:54;12.70;99.90
20759;DHT22;10539;53.686;9.158;2023-04-24T05:05:20;12.70;99.90
20759;DHT22;10539;53.686;9.158;2023-04-24T05:07:46;12.70;99.90
20759;DHT22;10539;53.686;9.158;2023-04-24T05:10:12;12.70;99.90
20759;DHT22;10539;53.686;9.158;2023-04-24T05:12:37;12.80;99.90
20759;DHT22;10539;53.686;9.158;2023-04-24T05:15:03;12.80;99.90
20759;DHT22;10539;53.686;9.158;2023-04-24T05:17:29;12.80;99.90
20759;DHT22;10539;53.686;9.158;2023-04-24T05:19:55;12.70;99.90
20759;DHT22;10539;53.686;9.158;2023-04-24T05:22:21;12.80;99.90
20759;DHT22;10539;53.686;9.158;2023-04-24T05:24:47;12.80;99.90
20759;DHT22;10539;53.686;9.158;2023-04-24T05:27:13;12.80;99.90
20759;DHT22;10539;53.686;9.158;2023-04-24T05:29:39;12.80;99.90
20759;DHT22;10539;53.686;9.158;2023-04-24T05:32:05;12.80;99.90
20759;DHT22;10539;53.686;9.158;2023-04-24T05:34:31;12.80;99.90
20759;DHT22;10539;53.686;9.158;2023-04-24T05:36:57;12.80;99.90
20759;DHT22;10539;53.686;9.158;2023-04-24T05:39:23;12.80;99.90
20759;DHT22;10539;53.686;9.158;2023-04-24T05:41:51;12.80;99.90
20759;DHT22;10539;53.686;9.158;2023-04-24T05:44:16;12.90;99.90
20759;DHT22;10539;53.686;9.158;2023-04-24T05:46:42;12.90;99.90
20759;DHT22;10539;53.686;9.158;2023-04-24T05:49:08;12.90;99.90
20759;DHT22;10539;53.686;9.158;2023-04-24T05:51:34;13.00;99.90
20759;DHT22;10539;53.686;9.158;2023-04-24T05:54:00;13.00;99.90
20759;DHT22;10539;53.686;9.158;2023-04-24T05:56:27;13.00;99.90
20759;DHT22;10539;53.686;9.158;2023-04-24T05:58:53;13.00;99.90
20759;DHT22;10539;53.686;9.158;2023-04-24T06:01:18;13.00;99.90
20759;DHT22;10539;53.686;9.158;2023-04-24T06:03:45;13.00;99.90
20759;DHT22;10539;53.686;9.158;2023-04-24T06:06:10;13.00;99.90
20759;DHT22;10539;53.686;9.158;2023-04-24T06:08:36;13.00;99.90
20759;DHT22;10539;53.686;9.158;2023-04-24T06:11:02;13.10;99.90
20759;DHT22;10539;53.686;9.158;2023-04-24T06:13:28;13.10;99.90
20759;DHT22;10539;53.686;9.158;2023-04-24T06:15:54;13.10;99.90
20759;DHT22;10539;53.686;9.158;2023-04-24T06:18:19;13.20;99.90
20759;DHT22;10539;53.686;9.158;2023-04-24T06:20:46;13.10;99.90
20759;DHT22;10539;53.686;9.158;2023-04-24T06:23:12;13.20;99.90
20759;DHT22;10539;53.686;9.158;2023-04-24T06:25:38;13.20;99.90
20759;DHT22;10539;53.686;9.158;2023-04-24T06:28:04;13.20;99.90
20759;DHT22;10539;53.686;9.158;2023-04-24T06:30:30;13.20;99.90
20759;DHT22;10539;53.686;9.158;2023-04-24T06:32:56;13.20;99.90
20759;DHT22;10539;53.686;9.158;2023-04-24T06:35:22;13.30;99.90
20759;DHT22;10539;53.686;9.158;2023-04-24T06:37:48;13.30;99.90
20759;DHT22;10539;53.686;9.158;2023-04-24T06:40:14;13.30;99.90
20759;DHT22;10539;53.686;9.158;2023-04-24T06:42:40;13.30;99.90
20759;DHT22;10539;53.686;9.158;2023-04-24T06:45:06;13.20;99.90
20759;DHT22;10539;53.686;9.158;2023-04-24T06:47:32;13.20;99.90
20759;DHT22;10539;53.686;9.158;2023-04-24T06:49:58;13.30;99.90
20759;DHT22;10539;53.686;9.158;2023-04-24T06:52:23;13.30;99.90
20759;DHT22;10539;53.686;9.158;2023-04-24T06:54:49;13.30;99.90
20759;DHT22;10539;53.686;9.158;2023-04-24T06:57:15;13.30;99.90
20759;DHT22;10539;53.686;9.158;2023-04-24T06:59:42;13.40;99.90
20759;DHT22;10539;53.686;9.158;2023-04-24T07:02:08;13.40;99.90
20759;DHT22;10539;53.686;9.158;2023-04-24T07:04:33;13.40;99.90
20759;DHT22;10539;53.686;9.158;2023-04-24T07:06:59;13.40;99.90
20759;DHT22;10539;53.686;9.158;2023-04-24T07:09:25;13.40;99.90
20759;DHT22;10539;53.686;9.158;2023-04-24T07:11:52;13.40;99.90
20759;DHT22;10539;53.686;9.158;2023-04-24T07:14:19;13.40;99.90
20759;DHT22;10539;53.686;9.158;2023-04-24T07:16:45;13.50;99.90
20759;DHT22;10539;53.686;9.158;2023-04-24T07:19:11;13.60;99.90
20759;DHT22;10539;53.686;9.158;2023-04-24T07:21:37;13.70;99.90
20759;DHT22;10539;53.686;9.158;2023-04-24T07:24:03;13.70;99.90
20759;DHT22;10539;53.686;9.158;2023-04-24T07:26:30;13.70;99.90
20759;DHT22;10539;53.686;9.158;2023-04-24T07:28:56;13.70;99.90
20759;DHT22;10539;53.686;9.158;2023-04-24T07:31:22;13.70;99.90
20759;DHT22;10539;53.686;9.158;2023-04-24T07:33:48;13.80;99.90
20759;DHT22;10539;53.686;9.158;2023-04-24T07:36:15;13.80;99.90
20759;DHT22;10539;53.686;9.158;2023-04-24T07:38:45;13.80;99.90
20759;DHT22;10539;53.686;9.158;2023-04-24T07:41:11;13.80;99.90
20759;DHT22;10539;53.686;9.158;2023-04-24T07:43:37;13.80;99.90
20759;DHT22;10539;53.686;9.158;2023-04-24T07:46:03;13.80;99.90
20759;DHT22;10539;53.686;9.158;2023-04-24T07:48:28;13.80;99.90
20759;DHT22;10539;53.686;9.158;2023-04-24T07:50:54;13.80;99.90
20759;DHT22;10539;53.686;9.158;2023-04-24T07:53:20;13.80;99.90
20759;DHT22;10539;53.686;9.158;2023-04-24T07:55:46;13.90;99.90
20759;DHT22;10539;53.686;9.158;2023-04-24T07:58:12;13.90;99.90
20759;DHT22;10539;53.686;9.158;2023-04-24T08:00:37;13.90;99.90
20759;DHT22;10539;53.686;9.158;2023-04-24T08:03:03;13.90;99.90
20759;DHT22;10539;53.686;9.158;2023-04-24T08:05:29;13.90;99.90
20759;DHT22;10539;53.686;9.158;2023-04-24T08:07:55;13.90;99.90
20759;DHT22;10539;53.686;9.158;2023-04-24T08:10:25;13.90;99.90
20759;DHT22;10539;53.686;9.158;2023-04-24T08:12:51;13.90;99.90
20759;DHT22;10539;53.686;9.158;2023-04-24T08:15:17;13.80;99.90
20759;DHT22;10539;53.686;9.158;2023-04-24T08:17:42;13.80;99.90
20759;DHT22;10539;53.686;9.158;2023-04-24T08:20:09;13.70;99.90
20759;DHT22;10539;53.686;9.158;2023-04-24T08:22:40;13.70;99.90
20759;DHT22;10539;53.686;9.158;2023-04-24T08:25:06;13.80;99.90
20759;DHT22;10539;53.686;9.158;2023-04-24T08:27:32;13.80;99.90
20759;DHT22;10539;53.686;9.158;2023-04-24T08:29:58;13.70;99.90
20759;DHT22;10539;53.686;9.158;2023-04-24T08:32:27;13.70;99.90
20759;DHT22;10539;53.686;9.158;2023-04-24T08:34:56;13.70;99.90
20759;DHT22;10539;53.686;9.158;2023-04-24T08:37:23;13.80;99.90
20759;DHT22;10539;53.686;9.158;2023-04-24T08:39:49;13.80;99.90
20759;DHT22;10539;53.686;9.158;2023-04-24T08:42:17;13.90;99.90
20759;DHT22;10539;53.686;9.158;2023-04-24T08:44:44;13.90;99.90
20759;DHT22;10539;53.686;9.158;2023-04-24T08:47:11;13.90;99.90
20759;DHT22;10539;53.686;9.158;2023-04-24T08:49:37;14.10;99.90
20759;DHT22;10539;53.686;9.158;2023-04-24T08:52:04;14.10;99.90
20759;DHT22;10539;53.686;9.158;2023-04-24T08:54:31;14.20;99.90
20759;DHT22;10539;53.686;9.158;2023-04-24T08:57:01;14.20;99.90
20759;DHT22;10539;53.686;9.158;2023-04-24T08:59:30;14.30;99.90
20759;DHT22;10539;53.686;9.158;2023-04-24T09:01:56;14.30;99.90
20759;DHT22;10539;53.686;9.158;2023-04-24T09:04:23;14.20;99.90
20759;DHT22;10539;53.686;9.158;2023-04-24T09:06:57;14.20;99.90
20759;DHT22;10539;53.686;9.158;2023-04-24T09:09:24;14.20;99.90
20759;DHT22;10539;53.686;9.158;2023-04-24T09:11:52;14.20;99.90
20759;DHT22;10539;53.686;9.158;2023-04-24T09:14:21;14.20;99.90
20759;DHT22;10539;53.686;9.158;2023-04-24T09:16:49;14.20;99.90
20759;DHT22;10539;53.686;9.158;2023-04-24T09:19:15;14.30;99.90
20759;DHT22;10539;53.686;9.158;2023-04-24T09:21:40;14.30;99.90
20759;DHT22;10539;53.686;9.158;2023-04-24T09:24:16;14.40;99.90
20759;DHT22;10539;53.686;9.158;2023-04-24T09:26:43;14.50;99.90
20759;DHT22;10539;53.686;9.158;2023-04-24T09:29:17;14.60;99.90
20759;DHT22;10539;53.686;9.158;2023-04-24T09:31:44;14.70;99.90
20759;DHT22;10539;53.686;9.158;2023-04-24T09:34:11;14.70;99.90
20759;DHT22;10539;53.686;9.158;2023-04-24T09:36:38;14.70;99.90
20759;DHT22;10539;53.686;9.158;2023-04-24T09:39:05;14.60;99.90
20759;DHT22;10539;53.686;9.158;2023-04-24T09:41:32;14.60;99.90
20759;DHT22;10539;53.686;9.158;2023-04-24T09:44:19;14.50;99.90
20759;DHT22;10539;53.686;9.158;2023-04-24T09:46:55;14.50;99.90
20759;DHT22;10539;53.686;9.158;2023-04-24T09:49:28;14.50;99.90
20759;DHT22;10539;53.686;9.158;2023-04-24T09:52:05;14.50;99.90
20759;DHT22;10539;53.686;9.158;2023-04-24T09:54:31;14.50;99.90
20759;DHT22;10539;53.686;9.158;2023-04-24T09:56:57;14.40;99.90
20759;DHT22;10539;53.686;9.158;2023-04-24T09:59:23;14.30;99.90
20759;DHT22;10539;53.686;9.158;2023-04-24T10:01:49;14.20;99.90
20759;DHT22;10539;53.686;9.158;2023-04-24T10:04:16;14.10;99.90
20759;DHT22;10539;53.686;9.158;2023-04-24T10:06:44;14.00;99.90
20759;DHT22;10539;53.686;9.158;2023-04-24T10:09:10;14.10;99.90
20759;DHT22;10539;53.686;9.158;2023-04-24T10:11:43;14.10;99.90
20759;DHT22;10539;53.686;9.158;2023-04-24T10:14:18;14.10;99.90
20759;DHT22;10539;53.686;9.158;2023-04-24T10:16:44;14.10;99.90
20759;DHT22;10539;53.686;9.158;2023-04-24T10:19:12;14.10;99.90
20759;DHT22;10539;53.686;9.158;2023-04-24T10:21:40;13.90;99.90
20759;DHT22;10539;53.686;9.158;2023-04-24T10:24:12;13.90;99.90
20759;DHT22;10539;53.686;9.158;2023-04-24T10:26:38;13.90;99.90
20759;DHT22;10539;53.686;9.158;2023-04-24T10:29:06;14.00;99.90
20759;DHT22;10539;53.686;9.158;2023-04-24T10:31:36;14.00;99.90
20759;DHT22;10539;53.686;9.158;2023-04-24T10:34:03;13.90;99.90
20759;DHT22;10539;53.686;9.158;2023-04-24T10:36:30;13.90;99.90
20759;DHT22;10539;53.686;9.158;2023-04-24T10:39:01;13.90;99.90
20759;DHT22;10539;53.686;9.158;2023-04-24T10:41:27;13.80;99.90
20759;DHT22;10539;53.686;9.158;2023-04-24T10:44:05;13.70;99.90
20759;DHT22;10539;53.686;9.158;2023-04-24T10:46:31;13.80;99.90
20759;DHT22;10539;53.686;9.158;2023-04-24T10:48:57;13.90;99.90
20759;DHT22;10539;53.686;9.158;2023-04-24T10:51:25;14.00;99.90
20759;DHT22;10539;53.686;9.158;2023-04-24T10:54:25;14.10;99.90
20759;DHT22;10539;53.686;9.158;2023-04-24T10:56:52;14.20;99.90
20759;DHT22;10539;53.686;9.158;2023-04-24T10:59:25;14.20;99.90
20759;DHT22;10539;53.686;9.158;2023-04-24T11:01:54;14.10;99.90
20759;DHT22;10539;53.686;9.158;2023-04-24T11:04:31;14.00;99.90
20759;DHT22;10539;53.686;9.158;2023-04-24T11:06:57;14.00;99.90
20759;DHT22;10539;53.686;9.158;2023-04-24T11:09:26;14.10;99.90
20759;DHT22;10539;53.686;9.158;2023-04-24T11:12:09;14.20;99.90
20759;DHT22;10539;53.686;9.158;2023-04-24T11:17:32;14.40;99.90
20759;DHT22;10539;53.686;9.158;2023-04-24T11:20:10;14.60;99.90
20759;DHT22;10539;53.686;9.158;2023-04-24T11:22:38;14.70;99.90
20759;DHT22;10539;53.686;9.158;2023-04-24T11:25:06;14.80;99.90
20759;DHT22;10539;53.686;9.158;2023-04-24T11:27:40;14.90;99.90
20759;DHT22;10539;53.686;9.158;2023-04-24T11:30:06;15.00;99.90
20759;DHT22;10539;53.686;9.158;2023-04-24T11:34:59;15.20;99.90
20759;DHT22;10539;53.686;9.158;2023-04-24T11:37:41;15.30;99.90
20759;DHT22;10539;53.686;9.158;2023-04-24T11:40:12;15.20;99.90
20759;DHT22;10539;53.686;9.158;2023-04-24T11:42:41;15.00;99.90
20759;DHT22;10539;53.686;9.158;2023-04-24T11:45:29;14.90;99.90
20759;DHT22;10539;53.686;9.158;2023-04-24T11:47:55;14.80;99.90
20759;DHT22;10539;53.686;9.158;2023-04-24T11:50:23;14.70;99.90
20759;DHT22;10539;53.686;9.158;2023-04-24T11:52:51;14.60;99.90
20759;DHT22;10539;53.686;9.158;2023-04-24T11:57:49;14.40;99.90
20759;DHT22;10539;53.686;9.158;2023-04-24T12:00:19;14.30;99.90
20759;DHT22;10539;53.686;9.158;2023-04-24T12:02:46;14.20;99.90
20759;DHT22;10539;53.686;9.158;2023-04-24T12:05:22;14.10;99.90
20759;DHT22;10539;53.686;9.158;2023-04-24T12:07:48;14.00;99.90
20759;DHT22;10539;53.686;9.158;2023-04-24T12:10:14;13.90;99.90
20759;DHT22;10539;53.686;9.158;2023-04-24T12:12:40;13.90;99.90
20759;DHT22;10539;53.686;9.158;2023-04-24T12:15:09;13.90;99.90
20759;DHT22;10539;53.686;9.158;2023-04-24T12:17:35;13.90;99.90
20759;DHT22;10539;53.686;9.158;2023-04-24T12:20:07;14.00;99.90
20759;DHT22;10539;53.686;9.158;2023-04-24T12:22:50;14.00;99.90
20759;DHT22;10539;53.686;9.158;2023-04-24T12:25:18;14.00;99.90
20759;DHT22;10539;53.686;9.158;2023-04-24T12:27:45;13.90;99.90
20759;DHT22;10539;53.686;9.158;2023-04-24T12:30:13;13.80;99.90
20759;DHT22;10539;53.686;9.158;2023-04-24T12:32:44;13.60;99.90
20759;DHT22;10539;53.686;9.158;2023-04-24T12:35:10;13.50;99.90
20759;DHT22;10539;53.686;9.158;2023-04-24T12:37:36;13.50;99.90
20759;DHT22;10539;53.686;9.158;2023-04-24T12:40:07;13.40;99.90
20759;DHT22;10539;53.686;9.158;2023-04-24T12:42:34;13.40;99.90
20759;DHT22;10539;53.686;9.158;2023-04-24T12:45:05;13.40;99.90
20759;DHT22;10539;53.686;9.158;2023-04-24T12:47:32;13.40;99.90
20759;DHT22;10539;53.686;9.158;2023-04-24T12:49:58;13.40;99.90
20759;DHT22;10539;53.686;9.158;2023-04-24T12:52:25;13.40;99.90
20759;DHT22;10539;53.686;9.158;2023-04-24T12:54:58;13.50;99.90
20759;DHT22;10539;53.686;9.158;2023-04-24T12:57:28;13.50;99.90
20759;DHT22;10539;53.686;9.158;2023-04-24T12:59:55;13.40;99.90
20759;DHT22;10539;53.686;9.158;2023-04-24T13:02:22;13.50;99.90
20759;DHT22;10539;53.686;9.158;2023-04-24T13:04:49;13.50;99.90
20759;DHT22;10539;53.686;9.158;2023-04-24T13:07:15;13.50;99.90
20759;DHT22;10539;53.686;9.158;2023-04-24T13:09:42;13.50;99.90
20759;DHT22;10539;53.686;9.158;2023-04-24T13:12:09;13.50;99.90
20759;DHT22;10539;53.686;9.158;2023-04-24T13:14:35;13.50;99.90
20759;DHT22;10539;53.686;9.158;2023-04-24T13:17:01;13.50;99.90
20759;DHT22;10539;53.686;9.158;2023-04-24T13:19:27;13.50;99.90
20759;DHT22;10539;53.686;9.158;2023-04-24T13:21:54;13.50;99.90
20759;DHT22;10539;53.686;9.158;2023-04-24T13:24:21;13.40;99.90
20759;DHT22;10539;53.686;9.158;2023-04-24T13:26:50;13.30;99.90
20759;DHT22;10539;53.686;9.158;2023-04-24T13:29:16;13.30;99.90
20759;DHT22;10539;53.686;9.158;2023-04-24T13:31:42;13.30;99.90
20759;DHT22;10539;53.686;9.158;2023-04-24T13:34:08;13.20;99.90
20759;DHT22;10539;53.686;9.158;2023-04-24T13:36:34;13.20;99.90
20759;DHT22;10539;53.686;9.158;2023-04-24T13:39:00;13.10;99.90
20759;DHT22;10539;53.686;9.158;2023-04-24T13:41:26;13.00;99.90
20759;DHT22;10539;53.686;9.158;2023-04-24T13:43:52;12.90;99.90
20759;DHT22;10539;53.686;9.158;2023-04-24T13:46:18;12.80;99.90
20759;DHT22;10539;53.686;9.158;2023-04-24T13:48:43;12.70;99.90
20759;DHT22;10539;53.686;9.158;2023-04-24T13:51:09;12.50;99.90
20759;DHT22;10539;53.686;9.158;2023-04-24T13:53:35;12.40;99.90
20759;DHT22;10539;53.686;9.158;2023-04-24T13:56:04;12.30;99.90
20759;DHT22;10539;53.686;9.158;2023-04-24T13:58:30;12.20;99.90
20759;DHT22;10539;53.686;9.158;2023-04-24T14:00:56;12.20;99.90
20759;DHT22;10539;53.686;9.158;2023-04-24T14:03:22;12.10;99.90
20759;DHT22;10539;53.686;9.158;2023-04-24T14:05:48;12.00;99.90
20759;DHT22;10539;53.686;9.158;2023-04-24T14:08:13;11.90;99.90
20759;DHT22;10539;53.686;9.158;2023-04-24T14:10:39;11.80;99.90
20759;DHT22;10539;53.686;9.158;2023-04-24T14:13:05;11.80;99.90
20759;DHT22;10539;53.686;9.158;2023-04-24T14:15:31;11.80;99.90
20759;DHT22;10539;53.686;9.158;2023-04-24T14:17:57;11.80;99.90
20759;DHT22;10539;53.686;9.158;2023-04-24T14:20:23;11.80;99.90
20759;DHT22;10539;53.686;9.158;2023-04-24T14:22:49;11.80;99.90
20759;DHT22;10539;53.686;9.158;2023-04-24T14:25:14;11.70;99.90
20759;DHT22;10539;53.686;9.158;2023-04-24T14:27:40;11.70;99.90
20759;DHT22;10539;53.686;9.158;2023-04-24T14:30:07;11.60;99.90
20759;DHT22;10539;53.686;9.158;2023-04-24T14:32:33;11.50;99.90
20759;DHT22;10539;53.686;9.158;2023-04-24T14:34:59;11.40;99.90
20759;DHT22;10539;53.686;9.158;2023-04-24T14:37:24;11.30;99.90
20759;DHT22;10539;53.686;9.158;2023-04-24T14:39:50;11.30;99.90
20759;DHT22;10539;53.686;9.158;2023-04-24T14:42:16;11.30;99.90
20759;DHT22;10539;53.686;9.158;2023-04-24T14:44:42;11.20;99.90
20759;DHT22;10539;53.686;9.158;2023-04-24T14:47:08;11.20;99.90
20759;DHT22;10539;53.686;9.158;2023-04-24T14:49:34;11.20;99.90
20759;DHT22;10539;53.686;9.158;2023-04-24T14:52:00;11.20;99.90
20759;DHT22;10539;53.686;9.158;2023-04-24T14:54:26;11.10;99.90
20759;DHT22;10539;53.686;9.158;2023-04-24T14:56:51;11.10;99.90
20759;DHT22;10539;53.686;9.158;2023-04-24T14:59:17;11.00;99.90
20759;DHT22;10539;53.686;9.158;2023-04-24T15:01:43;11.00;99.90
20759;DHT22;10539;53.686;9.158;2023-04-24T15:04:10;11.00;99.90
20759;DHT22;10539;53.686;9.158;2023-04-24T15:06:35;10.90;99.90
20759;DHT22;10539;53.686;9.158;2023-04-24T15:09:01;10.90;99.90
20759;DHT22;10539;53.686;9.158;2023-04-24T15:11:27;10.80;99.90
20759;DHT22;10539;53.686;9.158;2023-04-24T15:13:53;10.80;99.90
20759;DHT22;10539;53.686;9.158;2023-04-24T15:16:18;10.70;99.90
20759;DHT22;10539;53.686;9.158;2023-04-24T15:18:44;10.70;99.90
20759;DHT22;10539;53.686;9.158;2023-04-24T15:21:10;10.60;99.90
20759;DHT22;10539;53.686;9.158;2023-04-24T15:23:38;10.60;99.90
20759;DHT22;10539;53.686;9.158;2023-04-24T15:26:04;10.60;99.90
20759;DHT22;10539;53.686;9.158;2023-04-24T15:28:30;10.50;99.90
20759;DHT22;10539;53.686;9.158;2023-04-24T15:30:55;10.50;99.90
20759;DHT22;10539;53.686;9.158;2023-04-24T15:33:21;10.50;99.90
20759;DHT22;10539;53.686;9.158;2023-04-24T15:35:47;10.40;99.90